sensor_id;sensor_type;location;lat;lon;timestamp;pressure;altitude;pressure_sealevel;temperature;humidity
13015;BME280;6573;57.696;11.950;2024-01-30T00:02:04;102487.63;;;10.04;100.00
13015;BME280;6573;57.696;11.950;2024-01-30T00:04:33;102491.06;;;10.02;100.00
13015;BME280;6573;57.696;11.950;2024-01-30T00:07:02;102497.34;;;10.08;100.00
13015;BME280;6573;57.696;11.950;2024-01-30T00:09:31;102495.63;;;10.10;100.00
13015;BME280;6573;57.696;11.950;2024-01-30T00:12:02;102479.72;;;10.04;100.00
13015;BME280;6573;57.696;11.950;2024-01-30T00:14:31;102493.16;;;10.15;100.00
13015;BME280;6573;57.696;11.950;2024-01-30T00:17:00;102492.09;;;10.08;100.00
13015;BME280;6573;57.696;11.950;2024-01-30T00:19:31;102488.44;;;10.03;100.00
13015;BME280;6573;57.696;11.950;2024-01-30T00:21:59;102494.06;;;10.15;100.00
13015;BME280;6573;57.696;11.950;2024-01-30T00:24:28;102487.75;;;10.10;100.00
13015;BME280;6573;57.696;11.950;2024-01-30T00:26:56;102458.81;;;10.10;100.00
13015;BME280;6573;57.696;11.950;2024-01-30T00:29:25;102456.09;;;10.06;100.00
13015;BME280;6573;57.696;11.950;2024-01-30T00:31:57;102465.78;;;10.08;100.00
13015;BME280;6573;57.696;11.950;2024-01-30T00:34:25;102476.31;;;10.08;100.00
13015;BME280;6573;57.696;11.950;2024-01-30T00:36:57;102432.00;;;9.89;100.00
13015;BME280;6573;57.696;11.950;2024-01-30T00:39:25;102476.75;;;10.23;100.00
13015;BME280;6573;57.696;11.950;2024-01-30T00:41:57;102485.56;;;10.25;100.00
13015;BME280;6573;57.696;11.950;2024-01-30T00:44:29;102450.22;;;10.14;100.00
13015;BME280;6573;57.696;11.950;2024-01-30T00:46:58;102494.44;;;10.30;100.00
13015;BME280;6573;57.696;11.950;2024-01-30T00:49:26;102466.50;;;10.03;100.00
13015;BME280;6573;57.696;11.950;2024-01-30T00:51:58;102485.13;;;10.10;100.00
13015;BME280;6573;57.696;11.950;2024-01-30T00:54:28;102474.00;;;10.19;100.00
13015;BME280;6573;57.696;11.950;2024-01-30T00:56:56;102445.47;;;10.01;100.00
13015;BME280;6573;57.696;11.950;2024-01-30T00:59:25;102479.97;;;10.12;100.00
13015;BME280;6573;57.696;11.950;2024-01-30T01:01:53;102462.25;;;10.06;100.00
13015;BME280;6573;57.696;11.950;2024-01-30T01:04:23;102476.53;;;10.14;100.00
13015;BME280;6573;57.696;11.950;2024-01-30T01:06:52;102455.63;;;10.20;100.00
13015;BME280;6573;57.696;11.950;2024-01-30T01:09:22;102459.25;;;10.25;100.00
13015;BME280;6573;57.696;11.950;2024-01-30T01:11:51;102480.44;;;10.31;100.00
13015;BME280;6573;57.696;11.950;2024-01-30T01:14:20;102385.53;;;9.54;100.00
13015;BME280;6573;57.696;11.950;2024-01-30T01:16:50;102460.53;;;10.08;100.00
13015;BME280;6573;57.696;11.950;2024-01-30T01:19:19;102462.06;;;10.00;100.00
13015;BME280;6573;57.696;11.950;2024-01-30T01:21:48;102488.22;;;9.94;100.00
13015;BME280;6573;57.696;11.950;2024-01-30T01:24:18;102493.72;;;10.03;100.00
13015;BME280;6573;57.696;11.950;2024-01-30T01:26:50;102419.38;;;9.76;100.00
13015;BME280;6573;57.696;11.950;2024-01-30T01:29:19;102468.34;;;10.05;100.00
13015;BME280;6573;57.696;11.950;2024-01-30T01:31:56;102498.50;;;10.18;100.00
13015;BME280;6573;57.696;11.950;2024-01-30T01:34:27;102447.28;;;10.04;100.00
13015;BME280;6573;57.696;11.950;2024-01-30T01:36:57;102457.69;;;9.99;100.00
13015;BME280;6573;57.696;11.950;2024-01-30T01:39:26;102478.09;;;10.09;100.00
13015;BME280;6573;57.696;11.950;2024-01-30T01:41:58;102489.06;;;10.24;100.00
13015;BME280;6573;57.696;11.950;2024-01-30T01:44:30;102481.03;;;10.20;100.00
13015;BME280;6573;57.696;11.950;2024-01-30T01:46:59;102475.91;;;10.24;100.00
13015;BME280;6573;57.696;11.950;2024-01-30T01:49:28;102480.06;;;10.16;100.00
13015;BME280;6573;57.696;11.950;2024-01-30T01:51:58;102470.59;;;10.23;100.00
13015;BME280;6573;57.696;11.950;2024-01-30T01:54:28;102404.75;;;9.86;100.00
13015;BME280;6573;57.696;11.950;2024-01-30T01:57:00;102455.53;;;10.17;100.00
13015;BME280;6573;57.696;11.950;2024-01-30T01:59:30;102476.75;;;10.23;100.00
13015;BME280;6573;57.696;11.950;2024-01-30T02:01:58;102449.50;;;10.21;100.00
13015;BME280;6573;57.696;11.950;2024-01-30T02:04:29;102439.69;;;10.14;100.00
13015;BME280;6573;57.696;11.950;2024-01-30T02:06:58;102461.25;;;10.35;100.00
13015;BME280;6573;57.696;11.950;2024-01-30T02:09:27;102431.63;;;10.10;100.00
13015;BME280;6573;57.696;11.950;2024-01-30T02:11:56;102396.66;;;9.78;100.00
13015;BME280;6573;57.696;11.950;2024-01-30T02:14:27;102455.53;;;10.17;100.00
13015;BME280;6573;57.696;11.950;2024-01-30T02:16:57;102421.88;;;10.04;100.00
13015;BME280;6573;57.696;11.950;2024-01-30T02:19:27;102453.84;;;10.19;100.00
13015;BME280;6573;57.696;11.950;2024-01-30T02:21:57;102459.41;;;10.31;100.00
13015;BME280;6573;57.696;11.950;2024-01-30T02:24:26;102344.00;;;9.75;100.00
13015;BME280;6573;57.696;11.950;2024-01-30T02:26:55;102455.06;;;10.33;100.00
13015;BME280;6573;57.696;11.950;2024-01-30T02:29:24;102473.47;;;10.33;100.00
13015;BME280;6573;57.696;11.950;2024-01-30T02:31:57;102466.72;;;10.45;100.00
13015;BME280;6573;57.696;11.950;2024-01-30T02:34:26;102409.72;;;10.09;100.00
13015;BME280;6573;57.696;11.950;2024-01-30T02:36:59;102445.47;;;10.35;100.00
13015;BME280;6573;57.696;11.950;2024-01-30T02:39:28;102465.59;;;10.33;100.00
13015;BME280;6573;57.696;11.950;2024-01-30T02:41:57;102450.72;;;10.35;100.00
13015;BME280;6573;57.696;11.950;2024-01-30T02:44:46;102442.84;;;10.35;100.00
13015;BME280;6573;57.696;11.950;2024-01-30T02:47:23;102454.44;;;10.44;100.00
13015;BME280;6573;57.696;11.950;2024-01-30T02:49:53;102441.13;;;10.37;100.00
13015;BME280;6573;57.696;11.950;2024-01-30T02:52:24;102426.94;;;10.31;100.00
13015;BME280;6573;57.696;11.950;2024-01-30T02:54:53;102413.53;;;10.20;100.00
13015;BME280;6573;57.696;11.950;2024-01-30T02:57:24;102408.28;;;10.20;100.00
13015;BME280;6573;57.696;11.950;2024-01-30T02:59:55;102394.50;;;10.30;100.00
13015;BME280;6573;57.696;11.950;2024-01-30T03:02:29;102410.84;;;10.55;100.00
13015;BME280;6573;57.696;11.950;2024-01-30T03:05:03;102406.53;;;10.58;100.00
13015;BME280;6573;57.696;11.950;2024-01-30T03:07:37;102410.84;;;10.55;100.00
13015;BME280;6573;57.696;11.950;2024-01-30T03:10:09;102431.13;;;10.60;100.00
13015;BME280;6573;57.696;11.950;2024-01-30T03:12:39;102378.78;;;10.33;100.00
13015;BME280;6573;57.696;11.950;2024-01-30T03:15:08;102404.53;;;10.47;100.00
13015;BME280;6573;57.696;11.950;2024-01-30T03:17:38;102375.00;;;10.22;100.00
13015;BME280;6573;57.696;11.950;2024-01-30T03:20:08;102415.81;;;10.43;100.00
13015;BME280;6573;57.696;11.950;2024-01-30T03:22:39;102380.34;;;10.25;100.00
13015;BME280;6573;57.696;11.950;2024-01-30T03:25:08;102342.22;;;10.08;100.00
13015;BME280;6573;57.696;11.950;2024-01-30T03:27:36;102384.13;;;10.36;100.00
13015;BME280;6573;57.696;11.950;2024-01-30T03:30:07;102375.28;;;10.34;100.00
13015;BME280;6573;57.696;11.950;2024-01-30T03:32:36;102370.16;;;10.40;100.00
13015;BME280;6573;57.696;11.950;2024-01-30T03:35:05;102396.22;;;10.67;100.00
13015;BME280;6573;57.696;11.950;2024-01-30T03:37:34;102391.56;;;10.56;100.00
13015;BME280;6573;57.696;11.950;2024-01-30T03:40:05;102416.25;;;10.61;100.00
13015;BME280;6573;57.696;11.950;2024-01-30T03:42:48;102406.63;;;10.61;100.00
13015;BME280;6573;57.696;11.950;2024-01-30T03:45:16;102306.91;;;9.97;100.00
13015;BME280;6573;57.696;11.950;2024-01-30T03:47:46;102365.34;;;10.21;100.00
13015;BME280;6573;57.696;11.950;2024-01-30T03:50:15;102383.75;;;10.21;100.00
13015;BME280;6573;57.696;11.950;2024-01-30T03:52:45;102412.81;;;10.26;100.00
13015;BME280;6573;57.696;11.950;2024-01-30T03:55:17;102427.97;;;10.37;100.00
13015;BME280;6573;57.696;11.950;2024-01-30T03:57:53;102399.63;;;10.24;100.00
13015;BME280;6573;57.696;11.950;2024-01-30T04:00:29;102391.75;;;10.26;100.00
13015;BME280;6573;57.696;11.950;2024-01-30T04:02:58;102399.31;;;10.12;100.00
13015;BME280;6573;57.696;11.950;2024-01-30T04:05:33;102356.03;;;10.00;100.00
13015;BME280;6573;57.696;11.950;2024-01-30T04:08:08;102399.47;;;10.18;100.00
13015;BME280;6573;57.696;11.950;2024-01-30T04:10:39;102408.19;;;10.17;100.00
13015;BME280;6573;57.696;11.950;2024-01-30T04:13:07;102400.97;;;10.10;100.00
13015;BME280;6573;57.696;11.950;2024-01-30T04:15:38;102383.16;;;9.99;100.00
13015;BME280;6573;57.696;11.950;2024-01-30T04:18:08;102375.50;;;10.08;100.00
13015;BME280;6573;57.696;11.950;2024-01-30T04:20:37;102388.88;;;10.15;100.00
13015;BME280;6573;57.696;11.950;2024-01-30T04:23:06;102405.75;;;10.25;100.00
13015;BME280;6573;57.696;11.950;2024-01-30T04:25:42;102356.84;;;9.97;100.00
13015;BME280;6573;57.696;11.950;2024-01-30T04:28:11;102402.88;;;10.14;100.00
13015;BME280;6573;57.696;11.950;2024-01-30T04:30:48;102419.88;;;10.28;100.00
13015;BME280;6573;57.696;11.950;2024-01-30T04:33:18;102408.44;;;10.26;100.00
13015;BME280;6573;57.696;11.950;2024-01-30T04:35:47;102422.47;;;10.27;100.00
13015;BME280;6573;57.696;11.950;2024-01-30T04:38:18;102401.38;;;10.25;100.00
13015;BME280;6573;57.696;11.950;2024-01-30T04:40:49;102356.78;;;9.94;100.00
13015;BME280;6573;57.696;11.950;2024-01-30T04:43:18;102411.78;;;10.19;100.00
13015;BME280;6573;57.696;11.950;2024-01-30T04:45:49;102412.91;;;9.96;100.00
13015;BME280;6573;57.696;11.950;2024-01-30T04:48:18;102355.44;;;9.43;100.00
13015;BME280;6573;57.696;11.950;2024-01-30T04:50:47;102403.53;;;9.73;100.00
13015;BME280;6573;57.696;11.950;2024-01-30T04:53:16;102418.16;;;9.96;100.00
13015;BME280;6573;57.696;11.950;2024-01-30T04:55:45;102408.34;;;9.89;100.00
13015;BME280;6573;57.696;11.950;2024-01-30T04:58:16;102395.03;;;9.83;100.00
13015;BME280;6573;57.696;11.950;2024-01-30T05:00:45;102382.97;;;9.91;100.00
13015;BME280;6573;57.696;11.950;2024-01-30T05:03:19;102386.81;;;10.05;100.00
13015;BME280;6573;57.696;11.950;2024-01-30T05:05:49;102356.84;;;9.97;100.00
13015;BME280;6573;57.696;11.950;2024-01-30T05:08:18;102369.84;;;9.91;100.00
13015;BME280;6573;57.696;11.950;2024-01-30T05:10:46;102376.22;;;10.02;100.00
13015;BME280;6573;57.696;11.950;2024-01-30T05:13:16;102400.06;;;10.08;100.00
13015;BME280;6573;57.696;11.950;2024-01-30T05:15:45;102321.00;;;9.65;100.00
13015;BME280;6573;57.696;11.950;2024-01-30T05:18:20;102385.31;;;10.13;100.00
13015;BME280;6573;57.696;11.950;2024-01-30T05:20:49;102375.38;;;10.03;100.00
13015;BME280;6573;57.696;11.950;2024-01-30T05:23:19;102318.53;;;9.72;100.00
13015;BME280;6573;57.696;11.950;2024-01-30T05:25:48;102374.25;;;9.92;100.00
13015;BME280;6573;57.696;11.950;2024-01-30T05:28:18;102401.16;;;10.16;100.00
13015;BME280;6573;57.696;11.950;2024-01-30T05:30:48;102362.16;;;10.00;100.00
13015;BME280;6573;57.696;11.950;2024-01-30T05:33:18;102378.19;;;10.09;100.00
13015;BME280;6573;57.696;11.950;2024-01-30T05:35:48;102367.66;;;10.09;100.00
13015;BME280;6573;57.696;11.950;2024-01-30T05:38:22;102365.94;;;10.11;100.00
13015;BME280;6573;57.696;11.950;2024-01-30T05:40:50;102332.13;;;9.89;100.00
13015;BME280;6573;57.696;11.950;2024-01-30T05:43:22;102376.63;;;10.17;100.00
13015;BME280;6573;57.696;11.950;2024-01-30T05:45:52;102369.63;;;10.16;100.00
13015;BME280;6573;57.696;11.950;2024-01-30T05:48:20;102351.09;;;10.12;100.00
13015;BME280;6573;57.696;11.950;2024-01-30T05:50:49;102306.47;;;9.79;100.00
13015;BME280;6573;57.696;11.950;2024-01-30T05:53:19;102367.81;;;10.15;100.00
13015;BME280;6573;57.696;11.950;2024-01-30T05:55:48;102362.66;;;10.18;100.00
13015;BME280;6573;57.696;11.950;2024-01-30T05:58:17;102368.75;;;10.17;100.00
13015;BME280;6573;57.696;11.950;2024-01-30T06:00:52;102353.84;;;10.16;100.00
13015;BME280;6573;57.696;11.950;2024-01-30T06:03:23;102356.50;;;10.18;100.00
13015;BME280;6573;57.696;11.950;2024-01-30T06:05:59;102326.00;;;9.90;100.00
13015;BME280;6573;57.696;11.950;2024-01-30T06:08:31;102277.88;;;9.57;100.00
13015;BME280;6573;57.696;11.950;2024-01-30T06:11:04;102282.44;;;9.64;100.00
13015;BME280;6573;57.696;11.950;2024-01-30T06:13:32;102300.28;;;9.77;100.00
13015;BME280;6573;57.696;11.950;2024-01-30T06:16:09;102339.38;;;9.99;100.00
13015;BME280;6573;57.696;11.950;2024-01-30T06:18:38;102361.34;;;10.03;100.00
13015;BME280;6573;57.696;11.950;2024-01-30T06:21:06;102355.34;;;10.08;100.00
13015;BME280;6573;57.696;11.950;2024-01-30T06:23:38;102301.03;;;9.71;100.00
13015;BME280;6573;57.696;11.950;2024-01-30T06:26:07;102328.69;;;9.93;100.00
13015;BME280;6573;57.696;11.950;2024-01-30T06:28:37;102321.44;;;9.83;100.00
13015;BME280;6573;57.696;11.950;2024-01-30T06:31:05;102331.56;;;9.68;100.00
13015;BME280;6573;57.696;11.950;2024-01-30T06:33:35;102284.88;;;9.56;100.00
13015;BME280;6573;57.696;11.950;2024-01-30T06:36:08;102275.09;;;9.51;100.00
13015;BME280;6573;57.696;11.950;2024-01-30T06:42:27;102255.88;;;9.52;100.00
13015;BME280;6573;57.696;11.950;2024-01-30T06:47:55;102333.47;;;10.09;100.00
13015;BME280;6573;57.696;11.950;2024-01-30T06:49:21;102217.22;;;9.48;100.00
13015;BME280;6573;57.696;11.950;2024-01-30T06:52:35;102291.81;;;9.90;100.00
13015;BME280;6573;57.696;11.950;2024-01-30T06:55:33;102305.97;;;9.95;100.00
13015;BME280;6573;57.696;11.950;2024-01-30T06:58:09;102289.72;;;9.75;100.00
13015;BME280;6573;57.696;11.950;2024-01-30T07:00:44;102276.28;;;9.63;100.00
13015;BME280;6573;57.696;11.950;2024-01-30T07:03:21;102238.47;;;9.57;100.00
13015;BME280;6573;57.696;11.950;2024-01-30T07:05:58;102223.97;;;9.37;100.00
13015;BME280;6573;57.696;11.950;2024-01-30T07:08:32;102240.19;;;9.55;100.00
13015;BME280;6573;57.696;11.950;2024-01-30T07:11:05;102296.88;;;9.81;100.00
13015;BME280;6573;57.696;11.950;2024-01-30T07:13:41;102277.25;;;9.67;100.00
13015;BME280;6573;57.696;11.950;2024-01-30T07:16:16;102296.72;;;9.75;100.00
13015;BME280;6573;57.696;11.950;2024-01-30T07:18:51;102289.25;;;9.92;100.00
13015;BME280;6573;57.696;11.950;2024-01-30T07:21:28;102158.50;;;9.08;100.00
13015;BME280;6573;57.696;11.950;2024-01-30T07:23:58;102223.91;;;9.34;100.00
13015;BME280;6573;57.696;11.950;2024-01-30T07:26:28;102306.72;;;9.90;100.00
13015;BME280;6573;57.696;11.950;2024-01-30T07:29:01;102234.94;;;9.55;100.00
13015;BME280;6573;57.696;11.950;2024-01-30T07:31:36;102322.34;;;9.84;100.00
13015;BME280;6573;57.696;11.950;2024-01-30T07:34:09;102155.03;;;9.09;100.00
13015;BME280;6573;57.696;11.950;2024-01-30T07:36:52;102128.69;;;9.06;100.00
13015;BME280;6573;57.696;11.950;2024-01-30T07:39:22;102233.44;;;9.66;100.00
13015;BME280;6573;57.696;11.950;2024-01-30T07:41:54;102278.09;;;10.03;100.00
13015;BME280;6573;57.696;11.950;2024-01-30T07:44:34;102230.91;;;9.70;100.00
13015;BME280;6573;57.696;11.950;2024-01-30T07:47:05;102247.56;;;9.71;100.00
13015;BME280;6573;57.696;11.950;2024-01-30T07:49:35;102180.13;;;9.33;100.00
13015;BME280;6573;57.696;11.950;2024-01-30T07:52:10;102287.00;;;10.08;100.00
13015;BME280;6573;57.696;11.950;2024-01-30T07:54:48;102210.50;;;9.59;100.00
13015;BME280;6573;57.696;11.950;2024-01-30T07:57:18;102285.91;;;9.99;100.00
13015;BME280;6573;57.696;11.950;2024-01-30T07:59:50;102283.75;;;9.83;100.00
13015;BME280;6573;57.696;11.950;2024-01-30T08:02:49;102245.31;;;9.86;100.00
13015;BME280;6573;57.696;11.950;2024-01-30T08:05:23;102186.34;;;9.75;100.00
13015;BME280;6573;57.696;11.950;2024-01-30T08:08:02;102203.25;;;9.86;100.00
13015;BME280;6573;57.696;11.950;2024-01-30T08:10:54;102205.13;;;9.92;100.00
13015;BME280;6573;57.696;11.950;2024-01-30T08:13:25;102222.44;;;9.82;100.00
13015;BME280;6573;57.696;11.950;2024-01-30T08:15:55;102240.97;;;9.88;100.00
13015;BME280;6573;57.696;11.950;2024-01-30T08:18:25;102218.19;;;9.87;100.00
13015;BME280;6573;57.696;11.950;2024-01-30T08:21:04;102143.84;;;9.54;100.00
13015;BME280;6573;57.696;11.950;2024-01-30T08:23:42;102236.13;;;10.06;100.00
13015;BME280;6573;57.696;11.950;2024-01-30T08:26:12;102237.75;;;10.01;100.00
13015;BME280;6573;57.696;11.950;2024-01-30T08:28:45;102237.88;;;10.07;100.00
13015;BME280;6573;57.696;11.950;2024-01-30T08:31:19;102136.88;;;9.56;100.00
13015;BME280;6573;57.696;11.950;2024-01-30T08:33:49;102222.00;;;10.01;100.00
13015;BME280;6573;57.696;11.950;2024-01-30T08:36:25;102196.31;;;9.90;100.00
13015;BME280;6573;57.696;11.950;2024-01-30T08:38:57;102239.66;;;10.08;100.00
13015;BME280;6573;57.696;11.950;2024-01-30T08:41:33;102213.00;;;9.92;100.00
13015;BME280;6573;57.696;11.950;2024-01-30T08:44:09;102239.66;;;10.08;100.00
13015;BME280;6573;57.696;11.950;2024-01-30T08:46:45;102188.31;;;9.85;100.00
13015;BME280;6573;57.696;11.950;2024-01-30T08:49:36;102199.06;;;9.94;100.00
13015;BME280;6573;57.696;11.950;2024-01-30T08:52:32;102240.03;;;10.23;100.00
13015;BME280;6573;57.696;11.950;2024-01-30T08:55:24;102074.78;;;9.21;100.00
13015;BME280;6573;57.696;11.950;2024-01-30T08:58:10;102144.81;;;9.59;100.00
13015;BME280;6573;57.696;11.950;2024-01-30T09:09:19;102216.03;;;10.10;100.00
13015;BME280;6573;57.696;11.950;2024-01-30T09:15:57;102153.53;;;9.97;100.00
13015;BME280;6573;57.696;11.950;2024-01-30T10:00:44;102144.16;;;9.69;100.00
13015;BME280;6573;57.696;11.950;2024-01-30T10:18:56;102216.91;;;10.10;100.00
13015;BME280;6573;57.696;11.950;2024-01-30T10:21:50;102085.19;;;9.55;100.00
13015;BME280;6573;57.696;11.950;2024-01-30T10:25:01;102118.88;;;9.74;100.00
13015;BME280;6573;57.696;11.950;2024-01-30T10:28:06;102137.19;;;9.71;100.00
13015;BME280;6573;57.696;11.950;2024-01-30T10:30:38;102161.34;;;9.94;100.00
13015;BME280;6573;57.696;11.950;2024-01-30T10:33:28;102155.19;;;9.93;100.00
13015;BME280;6573;57.696;11.950;2024-01-30T10:36:13;102227.88;;;10.28;100.00
